Time;durP1;ratioP1;P1;durP2;ratioP2;P2;SDS_P1;SDS_P2;PMS_P1;PMS_P2;Temp;Humidity;BMP_temperature;BMP_pressure;BME280_temperature;BME280_humidity;BME280_pressure;Samples;Min_cycle;Max_cycle;Signal;HPM_P1;HPM_P2
2024/01/06 00:01:46;;;;;;;2.50;1.60;;;;;;;18.21;72.98;100474.19;5041525;28;20399;-37
2024/01/06 00:04:11;;;;;;;3.78;2.35;;;;;;;18.20;72.88;100480.78;5041460;28;20120;-37
2024/01/06 00:06:37;;;;;;;2.08;1.50;;;;;;;18.18;72.75;100484.91;5040538;28;20040;-36
2024/01/06 00:09:03;;;;;;;1.75;1.33;;;;;;;18.16;73.01;100477.00;5049199;28;20111;-37
2024/01/06 00:11:28;;;;;;;2.45;1.10;;;;;;;18.15;73.04;100486.31;5044183;28;20025;-37
2024/01/06 00:13:53;;;;;;;3.97;1.55;;;;;;;18.12;72.86;100482.22;5042380;28;20636;-37
2024/01/06 00:16:19;;;;;;;1.98;1.15;;;;;;;18.11;72.97;100485.22;5038912;28;20120;-37
2024/01/06 00:18:46;;;;;;;1.70;1.10;;;;;;;18.09;72.92;100496.50;5040856;28;20554;-38
2024/01/06 00:21:11;;;;;;;1.92;1.27;;;;;;;18.07;73.00;100492.41;5039895;28;20031;-37
2024/01/06 00:23:36;;;;;;;1.85;1.35;;;;;;;18.04;73.13;100493.78;5041978;28;20029;-38
2024/01/06 00:26:02;;;;;;;2.45;1.42;;;;;;;18.03;73.26;100499.56;5040929;28;20021;-38
2024/01/06 00:28:27;;;;;;;4.00;1.60;;;;;;;18.02;72.97;100497.94;5041139;28;20028;-38
2024/01/06 00:30:53;;;;;;;2.47;1.40;;;;;;;17.99;73.18;100499.31;5039723;28;20029;-38
2024/01/06 00:33:18;;;;;;;2.15;1.27;;;;;;;17.98;73.19;100499.59;5042319;28;20025;-38
2024/01/06 00:35:44;;;;;;;1.85;1.30;;;;;;;17.96;73.31;100497.97;5040247;28;20111;-37
2024/01/06 00:38:09;;;;;;;3.95;1.30;;;;;;;17.95;73.18;100500.97;5041382;28;20520;-37
2024/01/06 00:40:35;;;;;;;1.45;1.35;;;;;;;17.94;73.34;100497.44;5038357;28;20028;-37
2024/01/06 00:43:00;;;;;;;3.75;1.42;;;;;;;17.92;73.11;100502.34;5039506;28;20512;-38
2024/01/06 00:45:25;;;;;;;2.42;1.13;;;;;;;17.92;73.18;100505.06;5041064;28;20028;-38
2024/01/06 00:47:51;;;;;;;4.07;1.20;;;;;;;17.88;73.10;100504.03;5041331;28;20028;-38
2024/01/06 00:50:19;;;;;;;3.10;1.30;;;;;;;17.90;73.17;100512.78;5042020;28;20120;-37
2024/01/06 00:52:44;;;;;;;1.70;1.10;;;;;;;17.87;73.26;100513.34;5041088;28;20501;-36
2024/01/06 00:55:09;;;;;;;3.08;1.40;;;;;;;17.87;72.96;100515.28;5041446;28;20036;-37
2024/01/06 00:57:35;;;;;;;1.30;1.20;;;;;;;17.86;73.31;100519.91;5039421;28;20234;-37
2024/01/06 01:00:00;;;;;;;1.60;1.20;;;;;;;17.84;73.07;100524.88;5042479;28;20057;-37
2024/01/06 01:02:26;;;;;;;2.53;1.17;;;;;;;17.81;73.15;100526.25;5040101;28;20078;-36
2024/01/06 01:04:52;;;;;;;1.95;1.20;;;;;;;17.82;73.08;100527.09;5041637;28;20057;-37
2024/01/06 01:07:18;;;;;;;1.30;1.20;;;;;;;17.82;73.03;100535.31;5046526;28;20082;-36
2024/01/06 01:09:43;;;;;;;2.08;1.30;;;;;;;17.80;73.42;100541.09;5040464;28;20032;-38
2024/01/06 01:12:08;;;;;;;1.52;1.17;;;;;;;17.79;73.22;100542.19;5055815;28;20056;-37
2024/01/06 01:14:34;;;;;;;1.92;1.50;;;;;;;17.77;73.16;100541.63;5040751;28;20033;-36
2024/01/06 01:16:59;;;;;;;2.13;1.38;;;;;;;17.76;73.04;100542.72;5040444;28;20116;-37
2024/01/06 01:19:24;;;;;;;4.28;1.30;;;;;;;17.75;73.21;100549.31;5044400;28;20055;-37
2024/01/06 01:21:53;;;;;;;1.80;1.20;;;;;;;17.76;72.98;100552.88;5036410;28;20033;-37
2024/01/06 01:24:18;;;;;;;3.55;1.40;;;;;;;17.73;72.96;100551.53;5040999;28;20028;-37
2024/01/06 01:26:44;;;;;;;1.20;1.10;;;;;;;17.73;72.89;100567.16;5039560;28;20033;-37
2024/01/06 01:29:09;;;;;;;2.60;1.40;;;;;;;17.72;73.16;100574.56;5040621;28;20032;-37
2024/01/06 01:31:34;;;;;;;1.63;1.20;;;;;;;17.70;73.00;100562.25;5041100;28;20362;-37
2024/01/06 01:34:00;;;;;;;1.70;1.20;;;;;;;17.68;73.25;100573.47;5041193;28;20033;-37
2024/01/06 01:36:25;;;;;;;1.35;1.15;;;;;;;17.68;73.06;100584.44;5043406;28;20020;-37
2024/01/06 01:38:50;;;;;;;1.67;1.20;;;;;;;17.67;72.98;100587.47;5038888;28;20112;-37
2024/01/06 01:41:16;;;;;;;1.58;1.20;;;;;;;17.67;72.94;100590.19;5038552;28;20529;-37
2024/01/06 01:43:41;;;;;;;4.00;1.20;;;;;;;17.65;73.27;100587.75;5037953;28;20021;-37
2024/01/06 01:46:07;;;;;;;2.05;1.13;;;;;;;17.64;73.13;100603.38;5039215;28;20024;-37
2024/01/06 01:48:34;;;;;;;1.42;1.13;;;;;;;17.64;73.00;100606.13;5040769;28;20100;-37
2024/01/06 01:50:59;;;;;;;1.27;1.10;;;;;;;17.63;73.15;100606.38;5037286;28;20021;-38
2024/01/06 01:53:26;;;;;;;2.38;1.50;;;;;;;17.63;73.05;100614.59;5040511;28;20878;-38
2024/01/06 01:55:52;;;;;;;1.52;1.10;;;;;;;17.61;72.98;100627.78;5037656;28;20033;-38
2024/01/06 01:58:17;;;;;;;2.92;1.13;;;;;;;17.60;72.97;100615.97;5041941;28;20445;-38
2024/01/06 02:00:43;;;;;;;1.25;1.15;;;;;;;17.60;73.08;100618.72;5041395;28;20471;-37
2024/01/06 02:03:09;;;;;;;2.58;1.00;;;;;;;17.60;72.86;100620.66;5040636;28;20040;-38
2024/01/06 02:05:34;;;;;;;1.65;1.20;;;;;;;17.59;73.05;100630.78;5055937;28;20025;-38
2024/01/06 02:08:00;;;;;;;1.70;1.08;;;;;;;17.58;72.72;100628.31;5043654;28;20039;-38
2024/01/06 02:10:25;;;;;;;1.65;1.00;;;;;;;17.58;72.99;100631.91;5040639;28;20293;-39
2024/01/06 02:12:51;;;;;;;2.38;1.13;;;;;;;17.55;72.97;100629.72;5039794;28;20021;-37
2024/01/06 02:15:17;;;;;;;5.28;1.23;;;;;;;17.57;72.78;100641.22;5045930;28;20032;-37
2024/01/06 02:17:43;;;;;;;1.23;1.10;;;;;;;17.54;72.82;100635.47;5042988;28;20032;-37
2024/01/06 02:20:09;;;;;;;1.95;1.17;;;;;;;17.55;72.73;100643.41;5047425;28;20381;-37
2024/01/06 02:22:37;;;;;;;3.25;1.27;;;;;;;17.54;72.69;100641.75;5042224;28;20460;-38
2024/01/06 02:25:07;;;;;;;1.35;1.00;;;;;;;17.53;72.70;100651.06;5044989;28;20614;-38
2024/01/06 02:27:33;;;;;;;2.53;1.10;;;;;;;17.53;72.43;100655.75;5026023;28;20033;-37
2024/01/06 02:29:58;;;;;;;3.75;1.20;;;;;;;17.52;72.37;100648.63;5041836;28;20028;-37
2024/01/06 02:32:23;;;;;;;1.83;1.42;;;;;;;17.51;72.29;100650.56;5042816;28;20032;-37
2024/01/06 02:34:49;;;;;;;1.02;1.00;;;;;;;17.51;72.47;100655.19;5047020;28;20033;-37
2024/01/06 02:37:14;;;;;;;1.17;1.08;;;;;;;17.49;72.32;100659.03;5043024;28;20476;-37
2024/01/06 02:39:39;;;;;;;2.78;1.23;;;;;;;17.48;72.55;100662.91;5042336;28;20040;-37
2024/01/06 02:42:05;;;;;;;3.70;1.10;;;;;;;17.49;72.46;100666.44;5042025;28;20039;-38
2024/01/06 02:44:30;;;;;;;1.25;1.10;;;;;;;17.47;72.43;100674.09;5044125;28;20029;-37
2024/01/06 02:46:56;;;;;;;1.25;1.00;;;;;;;17.46;72.41;100665.09;5042995;28;20036;-37
2024/01/06 02:49:21;;;;;;;1.77;1.02;;;;;;;17.46;72.40;100672.47;5042288;28;20543;-38
2024/01/06 02:51:46;;;;;;;1.73;1.20;;;;;;;17.45;72.14;100673.59;5043251;28;20025;-37
2024/01/06 02:54:12;;;;;;;1.88;1.10;;;;;;;17.44;72.08;100677.41;5046956;28;20213;-36
2024/01/06 02:56:38;;;;;;;1.10;1.00;;;;;;;17.44;71.96;100682.91;5043572;28;20064;-37
2024/01/06 02:59:04;;;;;;;1.30;1.20;;;;;;;17.43;72.17;100687.53;5044443;28;20497;-37
2024/01/06 03:01:29;;;;;;;1.52;1.10;;;;;;;17.41;72.24;100692.50;5043975;28;20056;-37
2024/01/06 03:03:54;;;;;;;1.25;1.15;;;;;;;17.41;72.16;100700.72;5049232;28;20033;-37
2024/01/06 03:06:20;;;;;;;5.53;1.30;;;;;;;17.40;71.89;100699.06;5040752;28;20021;-36
2024/01/06 03:08:45;;;;;;;1.20;1.10;;;;;;;17.41;72.01;100694.41;5040423;28;20579;-37
2024/01/06 03:11:10;;;;;;;1.65;1.05;;;;;;;17.39;72.11;100697.41;5047921;28;20028;-37
2024/01/06 03:13:36;;;;;;;1.92;1.00;;;;;;;17.39;71.54;100702.09;5043970;28;20013;-36
2024/01/06 03:16:05;;;;;;;1.35;1.13;;;;;;;17.38;71.79;100701.25;5042072;28;20413;-37
2024/01/06 03:18:30;;;;;;;1.20;1.10;;;;;;;17.36;71.60;100694.41;5041509;28;20520;-37
2024/01/06 03:20:56;;;;;;;1.38;1.10;;;;;;;17.36;71.46;100699.88;5042022;28;20037;-37
2024/01/06 03:23:21;;;;;;;2.13;1.00;;;;;;;17.35;71.76;100704.56;5041427;28;20420;-37
2024/01/06 03:25:47;;;;;;;2.83;1.38;;;;;;;17.33;71.46;100707.56;5040679;28;20032;-37
2024/01/06 03:28:13;;;;;;;2.47;1.20;;;;;;;17.34;71.62;100711.13;5039836;28;20391;-37
2024/01/06 03:30:39;;;;;;;3.20;1.20;;;;;;;17.33;71.61;100709.47;5041466;28;20036;-36
2024/01/06 03:33:05;;;;;;;1.73;1.25;;;;;;;17.32;71.58;100714.13;5044596;28;20048;-36
2024/01/06 03:35:30;;;;;;;1.83;1.30;;;;;;;17.33;71.54;100717.69;5035808;28;20128;-37
2024/01/06 03:37:56;;;;;;;3.08;1.30;;;;;;;17.31;71.40;100717.97;5039963;28;20647;-37
2024/01/06 03:40:21;;;;;;;1.58;1.17;;;;;;;17.31;71.44;100726.19;5040046;28;20057;-37
2024/01/06 03:42:46;;;;;;;2.15;1.23;;;;;;;17.30;71.52;100720.97;5041155;28;20029;-36
2024/01/06 03:45:12;;;;;;;1.85;1.20;;;;;;;17.29;71.24;100733.06;5041576;28;20027;-37
2024/01/06 03:47:37;;;;;;;2.42;1.50;;;;;;;17.29;71.07;100733.06;5042464;28;20443;-38
2024/01/06 03:50:03;;;;;;;2.03;1.23;;;;;;;17.28;71.16;100731.41;5044674;28;20052;-37
2024/01/06 03:52:28;;;;;;;2.00;1.20;;;;;;;17.27;71.07;100736.03;5040272;28;20044;-38
2024/01/06 03:54:53;;;;;;;2.53;1.27;;;;;;;17.26;71.11;100739.06;5042650;28;20035;-38
2024/01/06 03:57:19;;;;;;;2.50;1.20;;;;;;;17.26;70.80;100739.88;5043469;28;20021;-39
2024/01/06 03:59:44;;;;;;;2.72;1.20;;;;;;;17.26;70.98;100739.06;5037557;28;20036;-38
2024/01/06 04:02:10;;;;;;;1.63;1.27;;;;;;;17.25;70.98;100746.47;5038823;28;20076;-37
2024/01/06 04:04:35;;;;;;;2.55;1.45;;;;;;;17.25;70.77;100748.38;5037318;28;20032;-37
2024/01/06 04:07:01;;;;;;;1.17;1.10;;;;;;;17.24;70.84;100752.19;5040867;28;20511;-37
2024/01/06 04:09:27;;;;;;;1.40;1.25;;;;;;;17.23;70.59;100756.88;5039218;28;20116;-37
2024/01/06 04:11:52;;;;;;;2.20;1.27;;;;;;;17.23;70.86;100756.03;5040822;28;20037;-40
2024/01/06 04:14:17;;;;;;;3.30;1.48;;;;;;;17.22;70.42;100759.88;5040415;28;20196;-38
2024/01/06 04:16:43;;;;;;;3.47;1.70;;;;;;;17.22;70.71;100768.09;5042720;28;20504;-38
2024/01/06 04:19:08;;;;;;;1.75;1.40;;;;;;;17.22;70.60;100762.63;5039875;28;20036;-38
2024/01/06 04:21:34;;;;;;;2.58;1.40;;;;;;;17.20;70.41;100768.34;5041792;28;20024;-37
2024/01/06 04:23:59;;;;;;;2.20;1.50;;;;;;;17.19;70.62;100774.13;5040531;28;20492;-37
2024/01/06 04:26:25;;;;;;;1.27;1.13;;;;;;;17.18;70.72;100778.78;5040690;28;20049;-37
2024/01/06 04:28:50;;;;;;;1.83;1.40;;;;;;;17.17;70.50;100769.72;5055435;28;20146;-38
2024/01/06 04:31:15;;;;;;;1.70;1.10;;;;;;;17.17;70.37;100775.22;5039744;28;20029;-38
2024/01/06 04:33:41;;;;;;;3.20;1.40;;;;;;;17.15;70.61;100774.69;5040371;28;20124;-37
2024/01/06 04:36:07;;;;;;;1.25;1.10;;;;;;;17.15;70.28;100793.84;5043600;28;20500;-37
2024/01/06 04:38:32;;;;;;;1.58;1.20;;;;;;;17.15;70.42;100784.78;5041308;28;20052;-38
2024/01/06 04:40:57;;;;;;;1.38;1.27;;;;;;;17.14;70.53;100780.41;5040715;28;20375;-38
2024/01/06 04:43:23;;;;;;;1.48;1.10;;;;;;;17.13;70.46;100785.06;5039611;28;20540;-38
2024/01/06 04:45:50;;;;;;;1.83;1.40;;;;;;;17.12;70.30;100786.16;5040454;28;20033;-38
2024/01/06 04:48:15;;;;;;;3.03;1.40;;;;;;;17.12;70.41;100790.84;5041878;28;20674;-38
2024/01/06 04:50:40;;;;;;;2.17;1.60;;;;;;;17.12;70.26;100793.56;5040990;28;20131;-38
2024/01/06 04:53:06;;;;;;;1.35;1.20;;;;;;;17.10;70.26;100802.03;5041779;28;20430;-38
2024/01/06 04:55:31;;;;;;;3.47;1.10;;;;;;;17.10;70.13;100793.00;5042320;28;20035;-38
2024/01/06 04:57:56;;;;;;;2.05;1.00;;;;;;;17.09;70.33;100796.84;5041154;28;20029;-38
2024/01/06 05:00:22;;;;;;;1.90;1.10;;;;;;;17.09;70.14;100805.88;5040315;28;20041;-37
2024/01/06 05:02:48;;;;;;;1.33;1.23;;;;;;;17.08;70.33;100801.50;5041499;28;20150;-37
2024/01/06 05:05:13;;;;;;;2.00;1.27;;;;;;;17.08;70.20;100814.34;5040265;28;20517;-37
2024/01/06 05:07:39;;;;;;;1.30;1.20;;;;;;;17.08;70.05;100814.34;5040799;28;20034;-37
2024/01/06 05:10:05;;;;;;;2.92;1.15;;;;;;;17.06;70.23;100817.38;5040443;28;20025;-38
2024/01/06 05:12:30;;;;;;;2.15;1.10;;;;;;;17.09;70.02;100821.47;5040814;28;20411;-38
2024/01/06 05:14:55;;;;;;;1.80;1.13;;;;;;;17.06;70.05;100825.59;5040341;28;20493;-38
2024/01/06 05:17:21;;;;;;;1.23;1.10;;;;;;;17.07;70.18;100829.97;5040712;28;20449;-38
2024/01/06 05:19:46;;;;;;;2.15;1.13;;;;;;;17.07;70.07;100834.63;5039703;28;20246;-38
2024/01/06 05:22:11;;;;;;;1.45;1.10;;;;;;;17.05;70.06;100826.69;5045872;28;20028;-38
2024/01/06 05:24:37;;;;;;;1.65;1.15;;;;;;;17.06;70.04;100836.53;5040064;28;20025;-38
2024/01/06 05:27:02;;;;;;;1.73;1.25;;;;;;;17.05;69.98;100831.34;5041534;28;20025;-38
2024/01/06 05:29:28;;;;;;;1.45;1.20;;;;;;;17.06;70.00;100839.28;5040603;28;20044;-39
2024/01/06 05:31:53;;;;;;;2.60;1.50;;;;;;;17.12;69.74;100840.94;5041127;28;20029;-39
2024/01/06 05:34:19;;;;;;;3.33;1.10;;;;;;;17.16;69.95;100844.75;5040720;28;20133;-38
2024/01/06 05:36:44;;;;;;;1.55;1.05;;;;;;;17.24;69.77;100840.69;5038062;28;20158;-38
2024/01/06 05:39:10;;;;;;;1.95;1.10;;;;;;;17.32;69.82;100842.06;5039390;28;20405;-37
2024/01/06 05:41:41;;;;;;;1.30;1.17;;;;;;;17.40;69.52;100841.53;5039792;28;20492;-37
2024/01/06 05:44:07;;;;;;;1.75;1.10;;;;;;;17.48;69.41;100851.97;5037533;28;20029;-37
2024/01/06 05:46:34;;;;;;;1.55;1.20;;;;;;;17.57;69.43;100848.66;5039689;28;20032;-38
2024/01/06 05:48:59;;;;;;;0.98;0.90;;;;;;;17.65;69.48;100848.13;5042473;28;20116;-37
2024/01/06 05:51:25;;;;;;;0.93;0.93;;;;;;;17.74;69.07;100856.59;5042897;28;20146;-38
2024/01/06 05:53:50;;;;;;;1.65;1.05;;;;;;;17.83;69.04;100857.72;5045251;28;20037;-38
2024/01/06 05:56:25;;;;;;;3.70;1.15;;;;;;;17.94;68.98;100864.00;5041729;28;20032;-37
2024/01/06 05:58:52;;;;;;;1.27;1.13;;;;;;;18.02;68.78;100866.19;5042435;28;20378;-37
2024/01/06 06:01:17;;;;;;;1.70;1.20;;;;;;;18.12;68.68;100870.84;5043648;28;20041;-38
2024/01/06 06:03:43;;;;;;;1.45;1.10;;;;;;;18.20;68.76;100869.50;5043767;28;20112;-39
2024/01/06 06:06:08;;;;;;;1.85;1.10;;;;;;;18.28;68.39;100877.13;5044460;28;20039;-37
2024/01/06 06:08:33;;;;;;;3.35;1.20;;;;;;;18.35;68.35;100883.16;5044888;28;20032;-38
2024/01/06 06:11:04;;;;;;;1.08;1.00;;;;;;;18.44;68.25;100883.41;5041830;28;20014;-38
2024/01/06 06:13:30;;;;;;;1.10;1.00;;;;;;;18.51;68.13;100883.94;5044890;28;20025;-38
2024/01/06 06:15:55;;;;;;;1.02;0.95;;;;;;;18.58;67.99;100894.63;5044454;28;20043;-38
2024/01/06 06:18:21;;;;;;;1.20;1.00;;;;;;;18.65;68.00;100911.63;5051818;28;20033;-37
2024/01/06 06:20:47;;;;;;;1.00;0.90;;;;;;;18.73;67.71;100910.22;5040950;28;20090;-37
2024/01/06 06:23:12;;;;;;;1.15;1.08;;;;;;;18.79;67.56;100908.28;5044796;28;20115;-37
2024/01/06 06:25:38;;;;;;;0.95;0.90;;;;;;;18.83;67.39;100914.84;5041517;28;20067;-37
2024/01/06 06:28:04;;;;;;;1.17;1.08;;;;;;;18.87;67.39;100921.41;5044582;28;20473;-38
2024/01/06 06:30:29;;;;;;;1.67;1.00;;;;;;;18.89;67.38;100931.03;5042106;28;20028;-36
2024/01/06 06:32:55;;;;;;;1.30;1.00;;;;;;;18.91;67.32;100934.34;5043257;28;20971;-39
2024/01/06 06:35:22;;;;;;;1.02;0.98;;;;;;;18.92;67.13;100935.19;5042179;28;20170;-38
2024/01/06 06:37:47;;;;;;;1.35;1.05;;;;;;;18.92;66.99;100944.22;5045236;28;20036;-37
2024/01/06 06:40:12;;;;;;;1.10;1.00;;;;;;;18.92;67.17;100944.22;5046663;28;20412;-37
2024/01/06 06:42:38;;;;;;;1.48;0.90;;;;;;;18.92;66.89;100940.69;5044627;28;20028;-37
2024/01/06 06:45:04;;;;;;;1.00;0.90;;;;;;;18.90;66.81;100953.81;5043544;28;20028;-37
2024/01/06 06:47:29;;;;;;;1.25;1.00;;;;;;;18.88;66.87;100956.84;5042062;28;20040;-37
2024/01/06 06:49:54;;;;;;;1.23;1.00;;;;;;;18.86;66.97;100950.81;5040714;28;20064;-37
2024/01/06 06:52:20;;;;;;;1.85;1.10;;;;;;;18.84;67.10;100954.94;5042086;28;20052;-37
2024/01/06 06:54:45;;;;;;;1.10;1.00;;;;;;;18.82;67.02;100959.88;5043043;28;20037;-37
2024/01/06 06:57:11;;;;;;;2.08;1.05;;;;;;;18.78;67.12;100965.13;5044447;28;20024;-38
2024/01/06 06:59:37;;;;;;;1.02;0.90;;;;;;;18.78;67.07;100973.34;5042369;28;20090;-38
2024/01/06 07:02:02;;;;;;;1.90;1.00;;;;;;;18.76;66.87;100967.31;5041221;28;20041;-37
2024/01/06 07:04:27;;;;;;;1.30;0.95;;;;;;;18.74;66.90;100973.09;5043086;28;20108;-37
2024/01/06 07:06:53;;;;;;;2.72;1.08;;;;;;;18.76;66.68;100983.78;5041193;28;20115;-37
2024/01/06 07:09:18;;;;;;;1.05;0.80;;;;;;;18.74;66.88;100986.00;5043887;28;20754;-38
2024/01/06 07:11:44;;;;;;;2.67;1.20;;;;;;;18.75;66.73;100993.94;5042977;28;20320;-38
2024/01/06 07:14:09;;;;;;;1.55;1.10;;;;;;;18.77;66.66;100997.25;5042402;28;20025;-38
2024/01/06 07:16:34;;;;;;;1.20;1.08;;;;;;;18.79;66.44;101002.47;5043528;28;20087;-38
2024/01/06 07:19:00;;;;;;;1.08;0.98;;;;;;;18.81;66.66;101004.91;5043388;28;20691;-38
2024/01/06 07:21:25;;;;;;;1.42;1.05;;;;;;;18.82;66.52;101015.66;5041325;28;20037;-37
2024/01/06 07:23:50;;;;;;;1.17;0.90;;;;;;;18.86;66.62;101018.63;5042162;28;20517;-38
2024/01/06 07:26:16;;;;;;;1.55;1.23;;;;;;;18.87;66.56;101023.88;5043366;28;20378;-38
2024/01/06 07:28:41;;;;;;;1.73;0.90;;;;;;;18.88;66.41;101020.03;5040878;28;20112;-37
2024/01/06 07:31:06;;;;;;;1.23;0.90;;;;;;;18.89;66.18;101018.09;5042061;28;20537;-37
2024/01/06 07:33:32;;;;;;;1.08;0.98;;;;;;;18.90;66.18;101022.47;5040245;28;20060;-37
2024/01/06 07:35:57;;;;;;;1.00;1.00;;;;;;;18.92;66.10;101025.81;5041844;28;20110;-37
2024/01/06 07:38:23;;;;;;;3.05;1.00;;;;;;;18.94;66.03;101029.09;5037477;28;20533;-36
2024/01/06 07:40:48;;;;;;;1.17;1.00;;;;;;;18.92;66.38;101036.81;5041484;28;20071;-36
2024/01/06 07:43:15;;;;;;;1.05;0.95;;;;;;;18.92;66.06;101031.31;5040374;28;20060;-37
2024/01/06 07:45:42;;;;;;;1.63;1.00;;;;;;;18.89;66.13;101040.06;5041298;28;20036;-39
2024/01/06 07:48:08;;;;;;;1.67;1.08;;;;;;;18.88;66.35;101043.91;5041167;28;20036;-37
2024/01/06 07:50:33;;;;;;;0.90;0.90;;;;;;;18.85;66.32;101045.28;5042614;28;20055;-37
2024/01/06 07:52:58;;;;;;;1.38;0.90;;;;;;;18.83;66.50;101049.41;5040514;28;20031;-38
2024/01/06 07:55:24;;;;;;;0.80;0.80;;;;;;;18.81;66.04;101070.81;5041270;28;20087;-38
2024/01/06 07:57:49;;;;;;;1.30;1.02;;;;;;;18.78;66.16;101069.44;5040964;28;20029;-37
2024/01/06 08:00:15;;;;;;;0.98;0.98;;;;;;;18.75;66.14;101067.28;5041624;28;20041;-37
2024/01/06 08:02:41;;;;;;;1.13;1.02;;;;;;;18.72;66.06;101070.56;5040436;28;20104;-37
2024/01/06 08:05:07;;;;;;;1.10;1.00;;;;;;;18.69;66.20;101079.38;5036612;28;20037;-37
2024/01/06 08:07:32;;;;;;;1.48;1.02;;;;;;;18.67;66.29;101085.09;5043748;28;20054;-37
2024/01/06 08:09:58;;;;;;;1.25;1.05;;;;;;;18.66;66.09;101091.69;5042077;28;20419;-38
2024/01/06 08:12:23;;;;;;;1.77;1.00;;;;;;;18.65;66.09;101087.31;5041322;28;20056;-38
2024/01/06 08:14:49;;;;;;;1.75;0.93;;;;;;;18.65;65.99;101091.97;5042804;28;20808;-37
2024/01/06 08:17:14;;;;;;;1.70;1.05;;;;;;;18.64;66.15;101096.66;5039022;28;20208;-37
2024/01/06 08:19:39;;;;;;;1.90;1.20;;;;;;;18.65;66.28;101095.56;5039189;28;20049;-37
2024/01/06 08:22:05;;;;;;;1.45;0.95;;;;;;;18.66;66.42;101104.59;5040541;28;20535;-38
2024/01/06 08:24:30;;;;;;;2.42;1.20;;;;;;;18.66;66.12;101110.91;5041487;28;20031;-38
2024/01/06 08:26:55;;;;;;;1.40;1.15;;;;;;;18.66;66.24;101110.91;5043401;28;20071;-37
2024/01/06 08:29:21;;;;;;;2.25;1.50;;;;;;;18.67;66.05;101111.75;5041934;28;20029;-38
2024/01/06 08:31:47;;;;;;;1.60;1.17;;;;;;;18.66;66.07;101126.56;5040594;28;20385;-37
2024/01/06 08:34:12;;;;;;;1.95;1.10;;;;;;;18.67;66.08;101114.50;5042442;28;20362;-38
2024/01/06 08:36:38;;;;;;;1.13;0.93;;;;;;;18.67;66.13;101120.78;5039746;28;20528;-38
2024/01/06 08:39:03;;;;;;;2.75;1.10;;;;;;;18.69;66.12;101120.53;5063053;28;20035;-38
2024/01/06 08:41:29;;;;;;;2.05;1.15;;;;;;;18.71;66.10;101134.81;5039917;28;20384;-38
2024/01/06 08:43:54;;;;;;;2.55;1.20;;;;;;;18.72;65.64;101136.44;5041104;28;20040;-38
2024/01/06 08:46:19;;;;;;;1.20;1.10;;;;;;;18.74;65.56;101131.53;5039172;28;20727;-39
2024/01/06 08:48:45;;;;;;;3.17;1.20;;;;;;;18.75;65.72;101139.47;5039912;28;20274;-37
2024/01/06 08:51:10;;;;;;;1.10;1.00;;;;;;;18.75;65.58;101142.22;5040470;28;20108;-38
2024/01/06 08:53:36;;;;;;;2.95;1.40;;;;;;;18.76;65.85;101145.78;5041719;28;20083;-38
2024/01/06 08:56:01;;;;;;;2.90;1.35;;;;;;;18.75;65.73;101152.41;5040560;28;20497;-39
2024/01/06 08:58:27;;;;;;;1.40;1.10;;;;;;;18.74;65.49;101158.97;5038524;28;20040;-38
2024/01/06 09:00:53;;;;;;;1.10;1.00;;;;;;;18.71;65.74;101154.03;5042128;28;20467;-38
2024/01/06 09:03:24;;;;;;;1.80;1.13;;;;;;;18.69;65.51;101159.78;5040908;28;20493;-38
2024/01/06 09:05:50;;;;;;;2.75;1.10;;;;;;;18.68;65.59;101160.88;5040153;28;20252;-38
2024/01/06 09:08:16;;;;;;;1.35;1.13;;;;;;;18.67;65.71;101163.91;5040373;28;20028;-38
2024/01/06 09:10:42;;;;;;;1.13;1.02;;;;;;;18.67;65.63;101166.66;5039070;28;20017;-37
2024/01/06 09:13:08;;;;;;;2.67;1.15;;;;;;;18.68;65.63;101173.81;5039888;28;20029;-39
2024/01/06 09:15:33;;;;;;;1.10;1.00;;;;;;;18.68;65.39;101171.06;5041469;28;20107;-38
2024/01/06 09:17:58;;;;;;;1.75;1.13;;;;;;;18.67;65.77;101164.72;5036954;28;20116;-37
2024/01/06 09:20:24;;;;;;;1.10;1.00;;;;;;;18.68;65.32;101169.13;5040841;28;20516;-37
2024/01/06 09:22:49;;;;;;;1.30;1.00;;;;;;;18.72;65.24;101191.38;5040502;28;20279;-37
2024/01/06 09:25:15;;;;;;;0.90;0.90;;;;;;;18.72;65.10;101191.38;5042085;28;20028;-37
2024/01/06 09:27:40;;;;;;;2.72;1.10;;;;;;;18.73;65.32;101196.56;5042118;28;20037;-36
2024/01/06 09:30:08;;;;;;;1.40;1.20;;;;;;;18.75;65.50;101199.06;5040809;28;20104;-39
2024/01/06 09:32:33;;;;;;;3.25;1.38;;;;;;;18.75;65.33;101201.81;5040660;28;20032;-39
2024/01/06 09:34:58;;;;;;;1.85;1.10;;;;;;;18.75;65.12;101201.81;5040621;28;20017;-38
2024/01/06 09:37:24;;;;;;;1.27;1.08;;;;;;;18.74;65.20;101200.97;5042521;28;20028;-38
2024/01/06 09:39:49;;;;;;;1.65;1.00;;;;;;;18.73;65.01;101207.56;5041081;28;20174;-37
2024/01/06 09:42:15;;;;;;;1.45;1.23;;;;;;;18.72;65.31;101213.31;5041706;28;20488;-38
2024/01/06 09:44:40;;;;;;;1.90;1.52;;;;;;;18.72;65.06;101214.16;5039921;28;20025;-38
2024/01/06 09:47:05;;;;;;;1.65;1.10;;;;;;;18.68;65.15;101210.31;5042459;28;20578;-38
2024/01/06 09:49:32;;;;;;;1.00;0.90;;;;;;;18.69;65.16;101225.69;5040193;28;20401;-37
2024/01/06 09:52:01;;;;;;;1.42;1.00;;;;;;;18.68;64.81;101223.22;5057892;28;20306;-38
2024/01/06 09:54:29;;;;;;;1.55;1.20;;;;;;;18.67;65.33;101227.06;5045474;28;20037;-39
2024/01/06 09:56:56;;;;;;;1.15;1.05;;;;;;;18.66;64.93;101239.13;5041117;28;20025;-37
2024/01/06 09:59:22;;;;;;;2.08;1.20;;;;;;;18.65;64.89;101238.31;5039806;28;20164;-37
2024/01/06 10:01:49;;;;;;;1.75;1.20;;;;;;;18.65;64.63;101245.72;5041236;28;20045;-38
2024/01/06 10:04:14;;;;;;;1.30;1.02;;;;;;;18.64;64.98;101239.41;5040282;28;20091;-38
2024/01/06 10:06:41;;;;;;;1.48;1.20;;;;;;;18.62;64.73;101255.31;5039760;28;20021;-38
2024/01/06 10:09:07;;;;;;;1.75;1.20;;;;;;;18.60;64.89;101255.59;5040581;28;20036;-39
2024/01/06 10:11:32;;;;;;;1.20;1.10;;;;;;;18.60;64.43;101261.09;5040987;28;20025;-39
2024/01/06 10:13:57;;;;;;;1.98;1.17;;;;;;;18.57;64.25;101261.63;5041024;28;20029;-37
2024/01/06 10:16:23;;;;;;;1.40;1.17;;;;;;;18.56;64.50;101259.16;5045366;28;20470;-38
2024/01/06 10:18:48;;;;;;;1.10;1.00;;;;;;;18.55;64.25;101262.97;5060383;28;20064;-38
2024/01/06 10:21:17;;;;;;;1.20;1.10;;;;;;;18.52;64.07;101269.84;5037549;28;20148;-38
2024/01/06 10:23:42;;;;;;;1.77;1.08;;;;;;;18.51;64.21;101270.13;5039079;28;20035;-38
2024/01/06 10:26:12;;;;;;;2.78;1.48;;;;;;;18.50;64.32;101268.47;5036937;28;20032;-37
2024/01/06 10:28:38;;;;;;;3.25;1.17;;;;;;;18.48;64.14;101276.13;5037183;28;20104;-37
2024/01/06 10:31:03;;;;;;;1.35;1.00;;;;;;;18.45;64.40;101269.25;5038792;28;20835;-38
2024/01/06 10:33:29;;;;;;;1.20;1.10;;;;;;;18.43;64.24;101269.53;5040344;28;20021;-38
2024/01/06 10:35:55;;;;;;;1.75;1.10;;;;;;;18.43;64.48;101277.78;5042966;28;20511;-38
2024/01/06 10:38:21;;;;;;;1.38;1.27;;;;;;;18.43;64.44;101276.97;5043396;28;20305;-38
2024/01/06 10:40:59;;;;;;;2.20;1.20;;;;;;;18.44;64.85;101282.19;5043664;28;20043;-38
2024/01/06 10:43:29;;;;;;;2.72;1.25;;;;;;;18.45;64.38;101283.00;5037987;28;20389;-38
2024/01/06 10:45:57;;;;;;;1.80;1.13;;;;;;;18.47;64.82;101283.56;5048560;28;20229;-37
2024/01/06 10:48:25;;;;;;;4.72;1.63;;;;;;;18.51;64.39;101297.56;5050624;28;20040;-38
2024/01/06 10:50:51;;;;;;;1.75;1.20;;;;;;;18.55;64.63;101295.91;5041549;28;20021;-38
2024/01/06 10:53:17;;;;;;;7.18;1.38;;;;;;;18.58;64.39;101292.66;5039519;28;20454;-38
2024/01/06 10:55:43;;;;;;;1.88;1.08;;;;;;;18.60;64.27;101296.78;5041413;28;20032;-38
2024/01/06 10:58:09;;;;;;;2.42;1.40;;;;;;;18.65;64.10;101301.47;5041946;28;20107;-37
2024/01/06 11:00:34;;;;;;;2.90;1.40;;;;;;;18.67;64.37;101291.00;5051052;28;20617;-37
2024/01/06 11:03:01;;;;;;;8.60;1.40;;;;;;;18.72;64.06;101306.69;5040388;28;20033;-37
2024/01/06 11:05:27;;;;;;;2.85;1.30;;;;;;;18.75;64.19;101308.91;5050022;28;20078;-37
2024/01/06 11:07:55;;;;;;;2.95;1.40;;;;;;;18.76;64.05;101310.53;5042346;28;20557;-37
2024/01/06 11:10:23;;;;;;;2.25;1.10;;;;;;;18.80;64.10;101322.63;5042445;28;20039;-38
2024/01/06 11:13:12;;;;;;;1.88;1.35;;;;;;;18.83;64.32;101322.06;5041653;28;20031;-37
2024/01/06 11:15:48;;;;;;;2.40;1.10;;;;;;;18.85;64.23;101319.09;5042379;28;20031;-37
2024/01/06 11:18:40;;;;;;;4.47;1.30;;;;;;;18.88;64.18;101321.28;5040681;28;20106;-38